sensor_id;sensor_type;location;lat;lon;timestamp;P1;durP1;ratioP1;P2;durP2;ratioP2
26163;SDS011;13914;48.178;11.716;2022-07-25T18:39:35;20.87;;;5.13;;
26163;SDS011;13914;48.178;11.716;2022-07-25T18:44:26;20.30;;;5.50;;
26163;SDS011;13914;48.178;11.716;2022-07-25T18:49:18;17.75;;;5.35;;
26163;SDS011;13914;48.178;11.716;2022-07-25T18:54:09;14.60;;;5.90;;
26163;SDS011;13914;48.178;11.716;2022-07-25T18:56:35;9.88;;;6.13;;
26163;SDS011;13914;48.178;11.716;2022-07-25T19:01:26;13.90;;;6.05;;
26163;SDS011;13914;48.178;11.716;2022-07-25T19:06:18;8.18;;;5.60;;
26163;SDS011;13914;48.178;11.716;2022-07-25T19:11:10;9.25;;;5.38;;
26163;SDS011;13914;48.178;11.716;2022-07-25T19:16:07;11.02;;;5.95;;
26163;SDS011;13914;48.178;11.716;2022-07-25T19:18:36;9.07;;;5.35;;
26163;SDS011;13914;48.178;11.716;2022-07-25T19:21:02;11.82;;;5.50;;
26163;SDS011;13914;48.178;11.716;2022-07-25T19:23:29;9.63;;;5.85;;
26163;SDS011;13914;48.178;11.716;2022-07-25T19:25:55;13.63;;;6.15;;
26163;SDS011;13914;48.178;11.716;2022-07-25T19:28:21;15.43;;;5.95;;
26163;SDS011;13914;48.178;11.716;2022-07-25T19:30:48;12.55;;;5.57;;
26163;SDS011;13914;48.178;11.716;2022-07-25T19:33:14;13.60;;;6.05;;
26163;SDS011;13914;48.178;11.716;2022-07-25T19:38:05;17.65;;;5.75;;
26163;SDS011;13914;48.178;11.716;2022-07-25T19:40:32;30.23;;;7.05;;
26163;SDS011;13914;48.178;11.716;2022-07-25T19:42:58;19.00;;;6.28;;
26163;SDS011;13914;48.178;11.716;2022-07-25T19:45:25;28.33;;;6.82;;
26163;SDS011;13914;48.178;11.716;2022-07-25T19:47:51;23.10;;;6.82;;
26163;SDS011;13914;48.178;11.716;2022-07-25T19:52:43;27.20;;;6.53;;
26163;SDS011;13914;48.178;11.716;2022-07-25T19:57:34;44.95;;;7.43;;
26163;SDS011;13914;48.178;11.716;2022-07-25T20:02:28;46.22;;;7.78;;
26163;SDS011;13914;48.178;11.716;2022-07-25T20:04:54;27.67;;;6.93;;
26163;SDS011;13914;48.178;11.716;2022-07-25T20:09:48;50.65;;;8.68;;
26163;SDS011;13914;48.178;11.716;2022-07-25T20:12:14;24.75;;;6.95;;
26163;SDS011;13914;48.178;11.716;2022-07-25T20:14:41;36.10;;;7.53;;
26163;SDS011;13914;48.178;11.716;2022-07-25T20:17:07;40.17;;;6.70;;
26163;SDS011;13914;48.178;11.716;2022-07-25T20:22:00;16.33;;;6.57;;
26163;SDS011;13914;48.178;11.716;2022-07-25T20:24:27;20.02;;;6.28;;
26163;SDS011;13914;48.178;11.716;2022-07-25T20:29:19;28.58;;;6.55;;
26163;SDS011;13914;48.178;11.716;2022-07-25T20:31:45;21.63;;;6.68;;
26163;SDS011;13914;48.178;11.716;2022-07-25T20:34:11;18.13;;;6.70;;
26163;SDS011;13914;48.178;11.716;2022-07-25T20:36:38;42.38;;;7.32;;
26163;SDS011;13914;48.178;11.716;2022-07-25T20:41:30;29.20;;;7.13;;
26163;SDS011;13914;48.178;11.716;2022-07-25T20:43:55;26.92;;;6.38;;
26163;SDS011;13914;48.178;11.716;2022-07-25T20:46:21;14.02;;;6.53;;
26163;SDS011;13914;48.178;11.716;2022-07-25T20:51:13;14.30;;;5.85;;
26163;SDS011;13914;48.178;11.716;2022-07-25T20:53:39;12.80;;;5.20;;
26163;SDS011;13914;48.178;11.716;2022-07-25T20:56:06;24.98;;;5.90;;
26163;SDS011;13914;48.178;11.716;2022-07-25T20:58:32;28.33;;;6.78;;
26163;SDS011;13914;48.178;11.716;2022-07-25T21:00:58;15.02;;;5.63;;
26163;SDS011;13914;48.178;11.716;2022-07-25T21:03:24;24.08;;;6.45;;
26163;SDS011;13914;48.178;11.716;2022-07-25T21:05:50;15.27;;;6.50;;
26163;SDS011;13914;48.178;11.716;2022-07-25T21:08:16;33.80;;;6.43;;
26163;SDS011;13914;48.178;11.716;2022-07-25T21:13:08;38.70;;;7.05;;
26163;SDS011;13914;48.178;11.716;2022-07-25T21:15:34;36.35;;;7.15;;
26163;SDS011;13914;48.178;11.716;2022-07-25T21:17:59;33.00;;;6.65;;
26163;SDS011;13914;48.178;11.716;2022-07-25T21:20:25;32.00;;;7.38;;
26163;SDS011;13914;48.178;11.716;2022-07-25T21:22:51;41.08;;;7.45;;
26163;SDS011;13914;48.178;11.716;2022-07-25T21:25:19;32.70;;;6.97;;
26163;SDS011;13914;48.178;11.716;2022-07-25T21:27:45;38.65;;;8.68;;
26163;SDS011;13914;48.178;11.716;2022-07-25T21:30:11;17.95;;;6.55;;
26163;SDS011;13914;48.178;11.716;2022-07-25T21:32:38;44.35;;;7.82;;
26163;SDS011;13914;48.178;11.716;2022-07-25T21:35:05;44.90;;;7.65;;
26163;SDS011;13914;48.178;11.716;2022-07-25T21:37:31;42.90;;;7.60;;
26163;SDS011;13914;48.178;11.716;2022-07-25T21:42:23;61.42;;;7.60;;
26163;SDS011;13914;48.178;11.716;2022-07-25T21:44:49;49.67;;;8.43;;
26163;SDS011;13914;48.178;11.716;2022-07-25T21:47:15;38.03;;;7.45;;
26163;SDS011;13914;48.178;11.716;2022-07-25T21:49:41;63.47;;;7.05;;
26163;SDS011;13914;48.178;11.716;2022-07-25T21:52:25;56.95;;;8.48;;
26163;SDS011;13914;48.178;11.716;2022-07-25T21:57:17;39.22;;;7.78;;
26163;SDS011;13914;48.178;11.716;2022-07-25T21:59:43;22.52;;;6.80;;
26163;SDS011;13914;48.178;11.716;2022-07-25T22:02:10;39.42;;;6.47;;
26163;SDS011;13914;48.178;11.716;2022-07-25T22:04:37;21.27;;;6.63;;
26163;SDS011;13914;48.178;11.716;2022-07-25T22:07:03;51.78;;;8.65;;
26163;SDS011;13914;48.178;11.716;2022-07-25T22:09:29;33.92;;;7.03;;
26163;SDS011;13914;48.178;11.716;2022-07-25T22:11:56;38.40;;;6.57;;
26163;SDS011;13914;48.178;11.716;2022-07-25T22:14:23;30.83;;;7.32;;
26163;SDS011;13914;48.178;11.716;2022-07-25T22:19:14;41.70;;;6.78;;
26163;SDS011;13914;48.178;11.716;2022-07-25T22:21:40;66.00;;;8.30;;
26163;SDS011;13914;48.178;11.716;2022-07-25T22:24:07;38.58;;;6.15;;
26163;SDS011;13914;48.178;11.716;2022-07-25T22:26:33;41.13;;;7.10;;
26163;SDS011;13914;48.178;11.716;2022-07-25T22:28:59;32.20;;;5.85;;
26163;SDS011;13914;48.178;11.716;2022-07-25T22:31:25;42.67;;;6.32;;
26163;SDS011;13914;48.178;11.716;2022-07-25T22:33:51;43.65;;;6.03;;
26163;SDS011;13914;48.178;11.716;2022-07-25T22:36:17;47.80;;;7.05;;
26163;SDS011;13914;48.178;11.716;2022-07-25T22:38:43;40.13;;;6.53;;
26163;SDS011;13914;48.178;11.716;2022-07-25T22:41:08;54.85;;;6.85;;
26163;SDS011;13914;48.178;11.716;2022-07-25T22:43:34;29.20;;;6.28;;
26163;SDS011;13914;48.178;11.716;2022-07-25T22:46:00;50.38;;;6.50;;
26163;SDS011;13914;48.178;11.716;2022-07-25T22:48:26;38.67;;;6.35;;
26163;SDS011;13914;48.178;11.716;2022-07-25T22:50:52;54.10;;;6.55;;
26163;SDS011;13914;48.178;11.716;2022-07-25T22:53:18;39.85;;;7.32;;
26163;SDS011;13914;48.178;11.716;2022-07-25T22:55:44;36.25;;;4.90;;
26163;SDS011;13914;48.178;11.716;2022-07-25T22:58:10;25.55;;;5.30;;
26163;SDS011;13914;48.178;11.716;2022-07-25T23:00:35;19.77;;;5.05;;
26163;SDS011;13914;48.178;11.716;2022-07-25T23:03:01;28.70;;;5.63;;
26163;SDS011;13914;48.178;11.716;2022-07-25T23:05:27;52.97;;;6.63;;
26163;SDS011;13914;48.178;11.716;2022-07-25T23:07:53;47.72;;;6.60;;
26163;SDS011;13914;48.178;11.716;2022-07-25T23:10:19;47.55;;;6.32;;
26163;SDS011;13914;48.178;11.716;2022-07-25T23:12:45;56.15;;;6.47;;
26163;SDS011;13914;48.178;11.716;2022-07-25T23:15:12;29.60;;;5.93;;
26163;SDS011;13914;48.178;11.716;2022-07-25T23:17:38;28.92;;;5.82;;
26163;SDS011;13914;48.178;11.716;2022-07-25T23:20:03;44.60;;;6.35;;
26163;SDS011;13914;48.178;11.716;2022-07-25T23:22:30;31.10;;;6.05;;
26163;SDS011;13914;48.178;11.716;2022-07-25T23:24:56;42.65;;;6.03;;
26163;SDS011;13914;48.178;11.716;2022-07-25T23:27:22;37.78;;;5.78;;
26163;SDS011;13914;48.178;11.716;2022-07-25T23:29:49;25.85;;;5.43;;
26163;SDS011;13914;48.178;11.716;2022-07-25T23:32:16;31.40;;;5.40;;
26163;SDS011;13914;48.178;11.716;2022-07-25T23:34:41;29.45;;;4.97;;
26163;SDS011;13914;48.178;11.716;2022-07-25T23:39:33;33.42;;;5.00;;
26163;SDS011;13914;48.178;11.716;2022-07-25T23:42:00;37.53;;;5.10;;
26163;SDS011;13914;48.178;11.716;2022-07-25T23:44:26;34.53;;;5.13;;
26163;SDS011;13914;48.178;11.716;2022-07-25T23:46:53;31.08;;;4.65;;
26163;SDS011;13914;48.178;11.716;2022-07-25T23:49:20;22.30;;;3.95;;
26163;SDS011;13914;48.178;11.716;2022-07-25T23:51:49;21.73;;;5.10;;
26163;SDS011;13914;48.178;11.716;2022-07-25T23:54:15;35.10;;;4.47;;
26163;SDS011;13914;48.178;11.716;2022-07-25T23:56:41;24.48;;;4.40;;
26163;SDS011;13914;48.178;11.716;2022-07-25T23:59:07;19.33;;;4.18;;
